Terminal Aerodrome Forecast
Issued by NWS Sterling, VA

Current Version | Previous Version | Text Only | Print | Product List | Glossary On
Versions: 1 2 3 4 5 6 7 8 9 10 11 12 13 14 15 16 17 18 19 20 21 22 23 24 25
000
FTUS41 KLWX 042340
TAFDCA
TAF
KDCA 042340Z 0500/0524 28011KT P6SM VCTS BKN040CB
      TEMPO 0500/0501 5SM -TSRA BR BKN030CB
     FM050300 36004KT P6SM SCT250
     FM051500 32008KT P6SM FEW250=

USA.gov is the U.S. government's official web portal to all federal, state and local government web resources and services.